Time;durP1;ratioP1;P1;durP2;ratioP2;P2;SDS_P1;SDS_P2;PMS_P1;PMS_P2;Temp;Humidity;BMP_temperature;BMP_pressure;BME280_temperature;BME280_humidity;BME280_pressure;Samples;Min_cycle;Max_cycle;Signal;HPM_P1;HPM_P2
2021/10/31 00:02:10;;;;;;;1999.90;999.90;;;;;;;10.55;100.00;99944.66;5092106;28;20419;-34
2021/10/31 00:04:35;;;;;;;1999.90;999.90;;;;;;;10.52;100.00;99945.16;5092061;28;20145;-33
2021/10/31 00:07:01;;;;;;;1999.90;999.90;;;;;;;10.47;100.00;99937.88;5092007;28;20035;-34
2021/10/31 00:09:29;;;;;;;1999.90;999.90;;;;;;;10.48;100.00;99937.63;5090790;28;20055;-34
2021/10/31 00:11:54;;;;;;;1999.90;999.90;;;;;;;10.54;100.00;99935.06;5092034;28;20028;-34
2021/10/31 00:14:21;;;;;;;1999.90;999.90;;;;;;;10.56;100.00;99938.31;5092015;28;20027;-34
2021/10/31 00:16:46;;;;;;;;;;;;;;;10.59;100.00;99933.28;5092278;28;20407;-34
2021/10/31 00:19:12;;;;;;;1999.90;999.90;;;;;;;10.53;100.00;99923.59;5091868;28;19912;-33
2021/10/31 00:21:38;;;;;;;1999.90;999.90;;;;;;;10.55;100.00;99929.47;5092383;28;20048;-34
2021/10/31 00:24:04;;;;;;;1999.90;999.90;;;;;;;10.55;100.00;99926.03;5092204;28;20066;-34
2021/10/31 00:26:30;;;;;;;1999.90;999.90;;;;;;;10.56;100.00;99931.09;5092127;28;20032;-34
2021/10/31 00:28:55;;;;;;;1999.90;999.90;;;;;;;10.45;100.00;99926.63;5092647;28;20032;-33
2021/10/31 00:31:21;;;;;;;1999.90;999.90;;;;;;;10.33;100.00;99924.81;5092122;28;20055;-34
2021/10/31 00:33:47;;;;;;;1999.90;999.90;;;;;;;10.30;100.00;99919.91;5092946;28;20032;-34
2021/10/31 00:36:12;;;;;;;1999.90;999.90;;;;;;;10.21;100.00;99917.88;5091758;28;20407;-34
2021/10/31 00:38:38;;;;;;;1999.90;999.90;;;;;;;10.20;100.00;99918.91;5092004;28;20031;-34
2021/10/31 00:41:04;;;;;;;1999.90;999.90;;;;;;;10.10;100.00;99924.84;5091680;28;20487;-34
2021/10/31 00:43:30;;;;;;;1999.90;999.90;;;;;;;10.00;100.00;99920.13;5091684;28;20028;-34
2021/10/31 00:45:55;;;;;;;1999.90;999.90;;;;;;;9.94;100.00;99921.03;5091723;28;20032;-34
2021/10/31 00:48:21;;;;;;;1999.90;999.90;;;;;;;9.88;100.00;99922.81;5091554;28;20059;-34
2021/10/31 00:50:51;;;;;;;1999.90;999.90;;;;;;;9.77;100.00;99916.44;5091675;28;20039;-34
2021/10/31 00:53:17;;;;;;;1999.90;999.90;;;;;;;9.69;100.00;99915.97;5090392;28;20039;-33
2021/10/31 00:55:43;;;;;;;1999.90;999.90;;;;;;;9.68;100.00;99914.38;5091430;28;20058;-33
2021/10/31 00:58:12;;;;;;;1999.90;999.90;;;;;;;9.68;100.00;99909.06;5091479;28;20445;-34
2021/10/31 01:00:38;;;;;;;1999.90;999.90;;;;;;;9.64;100.00;99909.50;5095044;28;20032;-34
2021/10/31 01:03:03;;;;;;;;;;;;;;;9.66;100.00;99909.28;5095850;28;20031;-34
2021/10/31 01:05:35;;;;;;;1999.90;999.90;;;;;;;9.63;100.00;99907.91;5095360;28;20302;-34
2021/10/31 01:08:52;;;;;;;1999.90;999.90;;;;;;;9.50;100.00;99908.13;5095490;28;20017;-33
2021/10/31 01:11:31;;;;;;;1999.90;999.90;;;;;;;9.45;100.00;99910.66;5093296;28;20034;-34
2021/10/31 01:14:23;;;;;;;1999.90;999.90;;;;;;;9.52;100.00;99908.69;5092920;28;20047;-34
2021/10/31 01:17:07;;;;;;;1999.90;999.90;;;;;;;9.34;100.00;99908.78;5092910;28;20028;-34
2021/10/31 01:20:05;;;;;;;1999.90;999.90;;;;;;;9.39;100.00;99903.59;5092996;28;20201;-33
2021/10/31 01:22:33;;;;;;;;;;;;;;;9.33;100.00;99897.34;5093403;28;20050;-34
2021/10/31 01:25:37;;;;;;;1999.90;999.90;;;;;;;9.34;100.00;99893.66;5092885;28;20025;-34
2021/10/31 01:28:34;;;;;;;1999.90;999.90;;;;;;;9.30;100.00;99894.38;5089983;28;20173;-34
2021/10/31 01:31:03;;;;;;;1999.90;999.90;;;;;;;9.31;100.00;99894.13;5092782;28;20449;-34
2021/10/31 01:33:56;;;;;;;1999.90;999.90;;;;;;;9.35;100.00;99897.13;5092732;28;20028;-34
2021/10/31 01:36:51;;;;;;;1999.90;999.90;;;;;;;9.38;100.00;99886.03;5092731;28;20385;-34
2021/10/31 01:39:40;;;;;;;1999.90;999.90;;;;;;;9.42;100.00;99880.00;5084709;28;20040;-34
2021/10/31 01:42:15;;;;;;;1999.90;999.90;;;;;;;9.43;100.00;99888.81;5092628;28;20028;-34
2021/10/31 01:44:40;;;;;;;1999.90;999.90;;;;;;;9.53;100.00;99880.22;5092482;28;20115;-33
2021/10/31 01:47:38;;;;;;;1999.90;999.90;;;;;;;9.62;100.00;99874.34;5093790;28;20555;-34
2021/10/31 01:50:22;;;;;;;1999.90;999.90;;;;;;;9.60;100.00;99875.59;5094452;28;20119;-34
2021/10/31 01:52:59;;;;;;;1999.90;999.90;;;;;;;9.68;100.00;99879.78;5094436;28;20024;-34
2021/10/31 01:55:37;;;;;;;1999.90;999.90;;;;;;;9.67;100.00;99870.97;5094332;28;20081;-33
2021/10/31 01:58:04;;;;;;;1999.90;999.90;;;;;;;9.72;100.00;99878.25;5094524;28;20039;-34
2021/10/31 02:00:32;;;;;;;1999.90;999.90;;;;;;;9.66;100.00;99868.53;5094253;28;20036;-34
2021/10/31 02:03:02;;;;;;;1999.90;999.90;;;;;;;9.79;100.00;99871.78;5094569;28;20408;-33
2021/10/31 02:05:33;;;;;;;1999.90;999.90;;;;;;;9.80;100.00;99876.03;5094155;28;20030;-34
2021/10/31 02:08:03;;;;;;;1999.90;999.90;;;;;;;9.90;100.00;99875.47;5094133;28;20028;-33
2021/10/31 02:10:31;;;;;;;1999.90;999.90;;;;;;;9.92;100.00;99875.22;5093463;28;20105;-33
2021/10/31 02:13:00;;;;;;;1999.90;999.90;;;;;;;9.93;100.00;99874.97;5094089;28;20075;-33
2021/10/31 02:15:27;;;;;;;1999.90;999.90;;;;;;;10.03;100.00;99881.53;5093980;28;20035;-34
2021/10/31 02:17:55;;;;;;;1999.90;999.90;;;;;;;10.11;100.00;99879.31;5094194;28;20057;-34
2021/10/31 02:20:23;;;;;;;1999.90;999.90;;;;;;;10.12;100.00;99880.97;5093825;28;20059;-34
2021/10/31 02:22:54;;;;;;;1999.90;999.90;;;;;;;10.17;100.00;99880.25;5093825;28;20020;-34
2021/10/31 02:25:21;;;;;;;1999.90;999.90;;;;;;;10.23;100.00;99881.94;5094129;28;20404;-34
2021/10/31 02:27:46;;;;;;;1999.90;999.90;;;;;;;10.23;100.00;99873.97;5093636;28;20035;-34
2021/10/31 02:30:13;;;;;;;1999.90;999.90;;;;;;;10.28;100.00;99876.75;5094144;28;20020;-34
2021/10/31 02:32:39;;;;;;;1999.90;999.90;;;;;;;10.32;100.00;99877.88;5093667;28;20039;-34
2021/10/31 02:35:08;;;;;;;1999.90;999.90;;;;;;;10.29;100.00;99867.72;5094236;28;20061;-34
2021/10/31 02:37:39;;;;;;;1999.90;999.90;;;;;;;10.42;100.00;99871.16;5093489;28;20109;-34
2021/10/31 02:40:06;;;;;;;1999.90;999.90;;;;;;;10.37;100.00;99873.75;5093400;28;20039;-33
2021/10/31 02:42:32;;;;;;;1999.90;999.90;;;;;;;10.30;100.00;99868.50;5093484;28;20032;-33
2021/10/31 02:44:58;;;;;;;1999.90;999.90;;;;;;;10.24;100.00;99866.81;5093472;28;20467;-33
2021/10/31 02:47:40;;;;;;;1999.90;999.90;;;;;;;10.30;100.00;99858.66;5093315;28;20032;-34
2021/10/31 02:50:10;;;;;;;1999.90;999.90;;;;;;;10.28;100.00;99863.41;5093667;28;20076;-33
2021/10/31 02:53:02;;;;;;;1999.90;999.90;;;;;;;10.30;100.00;99863.97;5093285;28;20054;-34
2021/10/31 02:55:45;;;;;;;1999.90;999.90;;;;;;;10.23;100.00;99867.84;5093009;28;20067;-33
2021/10/31 02:58:34;;;;;;;1999.90;999.90;;;;;;;10.32;100.00;99877.06;5093070;28;20483;-34
2021/10/31 03:01:02;;;;;;;1999.90;999.90;;;;;;;10.23;100.00;99873.97;5093083;28;20046;-34
2021/10/31 03:03:30;;;;;;;1999.90;999.90;;;;;;;10.30;100.00;99879.16;5092971;28;20099;-34
2021/10/31 03:05:57;;;;;;;1999.90;999.90;;;;;;;10.34;100.00;99875.00;5093049;28;20081;-34
2021/10/31 03:08:28;;;;;;;1999.90;999.90;;;;;;;10.38;100.00;99875.34;5093206;28;20392;-34
2021/10/31 03:10:57;;;;;;;1999.90;999.90;;;;;;;10.43;100.00;99876.25;5092904;28;20024;-34
2021/10/31 03:13:26;;;;;;;1999.90;999.90;;;;;;;10.36;100.00;99874.78;5092909;28;20107;-34
2021/10/31 03:15:52;;;;;;;1999.90;999.90;;;;;;;10.42;100.00;99877.28;5093640;28;20039;-34
2021/10/31 03:18:18;;;;;;;1999.90;999.90;;;;;;;10.46;100.00;99877.63;5093036;28;20032;-34
2021/10/31 03:20:44;;;;;;;1999.90;999.90;;;;;;;10.37;100.00;99873.75;5093022;28;20543;-34
2021/10/31 03:23:11;;;;;;;1999.90;999.90;;;;;;;10.40;100.00;99867.94;5091758;28;20031;-34
2021/10/31 03:25:37;;;;;;;1999.90;999.90;;;;;;;10.33;100.00;99868.84;5093488;28;20073;-33
2021/10/31 03:28:04;;;;;;;1999.90;999.90;;;;;;;10.40;100.00;99865.28;5092566;28;20020;-34
2021/10/31 03:30:30;;;;;;;1999.90;999.90;;;;;;;10.36;100.00;99867.59;5092537;28;20081;-34
2021/10/31 03:32:56;;;;;;;1999.90;999.90;;;;;;;10.27;100.00;99869.78;5092888;28;20103;-34
2021/10/31 03:35:23;;;;;;;1999.90;999.90;;;;;;;10.34;100.00;99867.03;5092479;28;20035;-34
2021/10/31 03:37:49;;;;;;;1999.90;999.90;;;;;;;10.26;100.00;99867.34;5092387;28;20020;-34
2021/10/31 03:40:15;;;;;;;1999.90;999.90;;;;;;;10.25;100.00;99871.09;5092360;28;20031;-34
2021/10/31 03:42:40;;;;;;;1999.90;999.90;;;;;;;10.35;100.00;99862.50;5092324;28;20032;-34
2021/10/31 03:45:08;;;;;;;1999.90;999.90;;;;;;;10.30;100.00;99863.19;5092395;28;20020;-33
2021/10/31 03:47:35;;;;;;;1999.90;999.90;;;;;;;10.26;100.00;99860.19;5092242;28;20028;-33
2021/10/31 03:50:00;;;;;;;1999.90;999.90;;;;;;;10.32;100.00;99861.06;5092327;28;20027;-33
2021/10/31 03:52:27;;;;;;;1999.90;999.90;;;;;;;10.28;100.00;99865.28;5092288;28;20032;-33
2021/10/31 03:54:52;;;;;;;1999.90;999.90;;;;;;;10.40;100.00;99863.41;5092101;28;20133;-34
2021/10/31 03:57:18;;;;;;;1999.90;999.90;;;;;;;10.41;100.00;99869.53;5092413;28;20067;-34
2021/10/31 03:59:44;;;;;;;1999.90;999.90;;;;;;;10.36;100.00;99859.59;5092002;28;20028;-34
2021/10/31 04:02:10;;;;;;;1999.90;999.90;;;;;;;10.40;100.00;99865.28;5092117;28;20028;-33
2021/10/31 04:04:35;;;;;;;1999.90;999.90;;;;;;;10.36;100.00;99861.47;5092400;28;20028;-33
2021/10/31 04:07:01;;;;;;;1999.90;999.90;;;;;;;10.30;100.00;99857.84;5092073;28;20457;-34
2021/10/31 04:09:27;;;;;;;1999.90;999.90;;;;;;;10.33;100.00;99868.03;5092274;28;20028;-34
2021/10/31 04:11:53;;;;;;;1999.90;999.90;;;;;;;10.29;100.00;99867.72;5092029;28;20507;-34
2021/10/31 04:14:19;;;;;;;1999.90;999.90;;;;;;;10.28;100.00;99858.09;5093083;28;20089;-33
2021/10/31 04:16:45;;;;;;;1999.90;999.90;;;;;;;10.27;100.00;99853.81;5091973;28;20484;-34
2021/10/31 04:19:11;;;;;;;1999.90;999.90;;;;;;;10.28;100.00;99855.44;5091858;28;20020;-34
2021/10/31 04:21:36;;;;;;;1999.90;999.90;;;;;;;10.25;100.00;99857.78;5091886;28;20545;-33
2021/10/31 04:24:02;;;;;;;1999.90;999.90;;;;;;;10.24;100.00;99862.28;5091913;28;20024;-34
2021/10/31 04:26:28;;;;;;;1999.90;999.90;;;;;;;10.29;100.00;99857.06;5091843;28;20036;-33
2021/10/31 04:28:54;;;;;;;1999.90;999.90;;;;;;;10.20;100.00;99853.13;5091794;28;20016;-34
2021/10/31 04:31:19;;;;;;;1999.90;999.90;;;;;;;10.24;100.00;99848.16;5091807;28;20032;-34
2021/10/31 04:33:45;;;;;;;1999.90;999.90;;;;;;;10.24;100.00;99843.63;5092425;28;20035;-34
2021/10/31 04:36:11;;;;;;;1999.90;999.90;;;;;;;10.24;100.00;99846.28;5095951;28;20028;-34
2021/10/31 04:38:37;;;;;;;1999.90;999.90;;;;;;;10.24;100.00;99840.16;5095838;28;20024;-34
2021/10/31 04:41:04;;;;;;;1999.90;999.90;;;;;;;10.29;100.00;99842.91;5095745;28;20040;-34
2021/10/31 04:43:30;;;;;;;1999.90;999.90;;;;;;;10.25;100.00;99842.59;5095799;28;20115;-34
2021/10/31 04:45:56;;;;;;;1999.90;999.90;;;;;;;10.30;100.00;99841.88;5095796;28;20063;-34
2021/10/31 04:48:23;;;;;;;1999.90;999.90;;;;;;;10.31;100.00;99844.28;5095743;28;20032;-34
2021/10/31 04:50:53;;;;;;;1999.90;999.90;;;;;;;10.38;100.00;99835.38;5095598;28;20487;-34
2021/10/31 04:53:19;;;;;;;1999.90;999.90;;;;;;;10.40;100.00;99830.63;5095572;28;20068;-34
2021/10/31 04:55:44;;;;;;;1999.90;999.90;;;;;;;10.38;100.00;99838.03;5095289;28;20083;-33
2021/10/31 04:58:11;;;;;;;1999.90;999.90;;;;;;;10.39;100.00;99837.00;5096039;28;20065;-34
2021/10/31 05:00:38;;;;;;;1999.90;999.90;;;;;;;10.49;100.00;99832.66;5095592;28;20403;-34
2021/10/31 05:03:04;;;;;;;1999.90;999.90;;;;;;;10.44;100.00;99831.75;5095739;28;20384;-34
2021/10/31 05:05:31;;;;;;;1999.90;999.90;;;;;;;10.47;100.00;99833.97;5095380;28;20016;-34
2021/10/31 05:07:58;;;;;;;1999.90;999.90;;;;;;;10.41;100.00;99829.56;5095237;28;20062;-33
2021/10/31 05:10:26;;;;;;;1999.90;999.90;;;;;;;10.33;100.00;99839.56;5095298;28;20035;-34
2021/10/31 05:12:52;;;;;;;1999.90;999.90;;;;;;;10.30;100.00;99837.34;5095497;28;20026;-34
2021/10/31 05:15:18;;;;;;;1999.90;999.90;;;;;;;10.27;100.00;99845.81;5095497;28;20125;-34
2021/10/31 05:17:44;;;;;;;;;;;;;;;10.39;100.00;99837.00;5095521;28;20111;-34
2021/10/31 05:20:11;;;;;;;1999.90;999.90;;;;;;;10.47;100.00;99841.94;5094955;28;20015;-34
2021/10/31 05:22:38;;;;;;;1999.90;999.90;;;;;;;10.49;100.00;99850.50;5095351;28;20107;-34
2021/10/31 05:25:06;;;;;;;1999.90;999.90;;;;;;;10.53;100.00;99850.81;5095289;28;20028;-34
2021/10/31 05:27:32;;;;;;;1999.90;999.90;;;;;;;10.35;100.00;99842.00;5095224;28;20028;-34
2021/10/31 05:29:58;;;;;;;1999.90;999.90;;;;;;;10.39;100.00;99845.78;5094791;28;20032;-34
2021/10/31 05:32:31;;;;;;;1999.90;999.90;;;;;;;10.42;100.00;99845.31;5094856;28;20023;-34
2021/10/31 05:34:56;;;;;;;1999.90;999.90;;;;;;;10.41;100.00;99849.03;5094833;28;20449;-33
2021/10/31 05:37:22;;;;;;;1999.90;999.90;;;;;;;10.32;100.00;99851.25;5094742;28;20024;-34
2021/10/31 05:39:48;;;;;;;1999.90;999.90;;;;;;;10.40;100.00;99854.63;5094575;28;20040;-34
2021/10/31 05:42:14;;;;;;;1999.90;999.90;;;;;;;10.38;100.00;99849.53;5094674;28;20074;-34
2021/10/31 05:44:40;;;;;;;1999.90;999.90;;;;;;;10.36;100.00;99850.81;5094921;28;20032;-34
2021/10/31 05:47:06;;;;;;;1999.90;999.90;;;;;;;10.34;100.00;99848.38;5093600;28;20028;-34
2021/10/31 05:49:33;;;;;;;1999.90;999.90;;;;;;;10.28;100.00;99850.09;5094772;28;20032;-34
2021/10/31 05:51:58;;;;;;;1999.90;999.90;;;;;;;10.22;100.00;99845.72;5094748;28;20086;-34
2021/10/31 05:54:24;;;;;;;1999.90;999.90;;;;;;;10.23;100.00;99850.00;5094299;28;20521;-33
2021/10/31 05:56:50;;;;;;;1999.90;999.90;;;;;;;10.31;100.00;99852.28;5094392;28;20036;-34
2021/10/31 05:59:15;;;;;;;1999.90;999.90;;;;;;;10.26;100.00;99846.88;5094523;28;20020;-33
2021/10/31 06:01:41;;;;;;;1999.90;999.90;;;;;;;10.21;100.00;99846.78;5094643;28;20028;-34
2021/10/31 06:04:07;;;;;;;1999.90;999.90;;;;;;;10.25;100.00;99855.91;5094546;28;20479;-34
2021/10/31 06:06:34;;;;;;;1999.90;999.90;;;;;;;10.33;100.00;99852.88;5094223;28;20089;-34
2021/10/31 06:08:59;;;;;;;1999.90;999.90;;;;;;;10.28;100.00;99852.75;5094040;28;20038;-34
2021/10/31 06:11:26;;;;;;;1999.90;999.90;;;;;;;10.21;100.00;99846.78;5094107;28;20115;-34
2021/10/31 06:13:56;;;;;;;1999.90;999.90;;;;;;;10.16;100.00;99844.03;5094090;28;20032;-33
2021/10/31 06:16:22;;;;;;;1999.90;999.90;;;;;;;10.15;100.00;99856.50;5094303;28;20420;-34
2021/10/31 06:18:47;;;;;;;1999.90;999.90;;;;;;;10.22;100.00;99850.22;5094212;28;20479;-34
2021/10/31 06:21:13;;;;;;;1999.90;999.90;;;;;;;10.17;100.00;99858.94;5093839;28;20412;-34
2021/10/31 06:23:39;;;;;;;1999.90;999.90;;;;;;;10.18;100.00;99863.22;5094227;28;20028;-33
2021/10/31 06:26:05;;;;;;;1999.90;999.90;;;;;;;10.17;100.00;99858.94;5093856;28;20024;-33
2021/10/31 06:28:31;;;;;;;1999.90;999.90;;;;;;;10.23;100.00;99857.19;5093695;28;20028;-34
2021/10/31 06:30:56;;;;;;;1999.90;999.90;;;;;;;10.22;100.00;99866.22;5094026;28;20036;-34
2021/10/31 06:33:22;;;;;;;1999.90;999.90;;;;;;;10.21;100.00;99867.28;5093712;28;20032;-34
2021/10/31 06:35:48;;;;;;;1999.90;999.90;;;;;;;10.20;100.00;99869.09;5093927;28;20034;-33
2021/10/31 06:38:15;;;;;;;1999.90;999.90;;;;;;;10.16;100.00;99868.00;5094477;28;20028;-34
2021/10/31 06:40:40;;;;;;;1999.90;999.90;;;;;;;10.20;100.00;99863.78;5093323;28;20040;-33
2021/10/31 06:43:06;;;;;;;1999.90;999.90;;;;;;;10.20;100.00;99863.78;5093499;28;20035;-34
2021/10/31 06:45:32;;;;;;;1999.90;999.90;;;;;;;10.26;100.00;99867.34;5093799;28;20114;-34
2021/10/31 06:47:57;;;;;;;1999.90;999.90;;;;;;;10.26;100.00;99867.34;5093321;28;20027;-34
2021/10/31 06:50:23;;;;;;;1999.90;999.90;;;;;;;10.28;100.00;99876.75;5093359;28;20028;-34
2021/10/31 06:52:50;;;;;;;1999.90;999.90;;;;;;;10.35;100.00;99865.16;5093392;28;20028;-33
2021/10/31 06:55:16;;;;;;;1999.90;999.90;;;;;;;10.30;100.00;99865.84;5093062;28;20082;-34
2021/10/31 06:57:42;;;;;;;1999.90;999.90;;;;;;;10.37;100.00;99865.75;5092994;28;20021;-34
2021/10/31 07:00:09;;;;;;;1999.90;999.90;;;;;;;10.39;100.00;99860.97;5092995;28;20089;-34
2021/10/31 07:02:35;;;;;;;1999.90;999.90;;;;;;;10.48;100.00;99865.69;5093467;28;20069;-33
2021/10/31 07:05:02;;;;;;;1999.90;999.90;;;;;;;10.48;100.00;99859.53;5093011;28;20048;-34
2021/10/31 07:07:28;;;;;;;1999.90;999.90;;;;;;;10.49;100.00;99858.50;5093059;28;20032;-34
2021/10/31 07:09:53;;;;;;;1999.90;999.90;;;;;;;10.52;100.00;99866.00;5092932;28;20050;-33
2021/10/31 07:12:19;;;;;;;1999.90;999.90;;;;;;;10.56;100.00;99863.69;5092939;28;20024;-34
2021/10/31 07:14:45;;;;;;;1999.90;999.90;;;;;;;10.61;100.00;99863.78;5092893;28;20028;-34
2021/10/31 07:17:11;;;;;;;1999.90;999.90;;;;;;;10.58;100.00;99859.72;5092794;28;20438;-33
2021/10/31 07:19:37;;;;;;;1999.90;999.90;;;;;;;10.55;100.00;99862.88;5093150;28;20074;-34
2021/10/31 07:22:03;;;;;;;1999.90;999.90;;;;;;;10.57;100.00;99862.63;5093100;28;20426;-34
2021/10/31 07:24:29;;;;;;;1999.90;999.90;;;;;;;10.70;100.00;99856.19;5092699;28;20043;-34
2021/10/31 07:26:55;;;;;;;1999.90;999.90;;;;;;;10.66;100.00;99864.66;5092974;28;20031;-34
2021/10/31 07:29:20;;;;;;;1999.90;999.90;;;;;;;10.71;100.00;99847.94;5092884;28;20472;-34
2021/10/31 07:31:47;;;;;;;1999.90;999.90;;;;;;;10.75;100.00;99857.09;5092608;28;20062;-34
2021/10/31 07:34:14;;;;;;;1999.90;999.90;;;;;;;10.83;100.00;99848.69;5093328;28;20043;-34
2021/10/31 07:36:42;;;;;;;1999.90;999.90;;;;;;;10.90;100.00;99851.19;5092864;28;20096;-33
2021/10/31 07:39:11;;;;;;;1999.90;999.90;;;;;;;10.80;100.00;99856.38;5092662;28;20028;-34
2021/10/31 07:41:38;;;;;;;1999.90;999.90;;;;;;;10.94;100.00;99849.66;5092605;28;20423;-34
2021/10/31 07:44:04;;;;;;;;;;;;;;;10.89;100.00;99849.56;5092900;28;20028;-34
2021/10/31 07:46:32;;;;;;;1999.90;999.90;;;;;;;11.01;100.00;99841.50;5092628;28;19912;-34
2021/10/31 07:48:57;;;;;;;1999.90;999.90;;;;;;;11.16;100.00;99848.94;5092623;28;20028;-34
2021/10/31 07:51:23;;;;;;;1999.90;999.90;;;;;;;11.13;100.00;99852.06;5092196;28;20028;-34
2021/10/31 07:53:49;;;;;;;1999.90;999.90;;;;;;;10.93;100.00;99845.38;5090845;28;20028;-34
2021/10/31 07:56:16;;;;;;;1999.90;999.90;;;;;;;11.05;100.00;99841.81;5092245;28;20040;-34
2021/10/31 07:58:44;;;;;;;1999.90;999.90;;;;;;;11.05;100.00;99845.28;5092101;28;20035;-34
2021/10/31 08:01:13;;;;;;;1999.90;999.90;;;;;;;11.07;100.00;99843.22;5092006;28;20031;-34
2021/10/31 08:03:42;;;;;;;1999.90;999.90;;;;;;;11.20;100.00;99845.53;5092076;28;20032;-34
2021/10/31 08:06:08;;;;;;;1999.90;999.90;;;;;;;11.12;100.00;99835.28;5092099;28;20024;-34
2021/10/31 08:08:34;;;;;;;1999.90;999.90;;;;;;;11.28;100.00;99840.84;5091510;28;20032;-34
2021/10/31 08:11:01;;;;;;;1999.90;999.90;;;;;;;11.34;100.00;99843.31;5091922;28;20434;-34
2021/10/31 08:13:27;;;;;;;1999.90;999.90;;;;;;;11.40;100.00;99838.06;5092018;28;20024;-34
2021/10/31 08:15:53;;;;;;;;;;;;;;;11.46;100.00;99839.75;5092433;28;20028;-34
2021/10/31 08:18:20;;;;;;;1999.90;999.90;;;;;;;11.43;100.00;99840.25;5091886;28;20410;-34
2021/10/31 08:20:47;;;;;;;1999.90;999.90;;;;;;;11.31;100.00;99846.47;5091831;28;20051;-33
2021/10/31 08:23:15;;;;;;;1999.90;999.90;;;;;;;11.46;100.00;99840.56;5092165;28;20443;-34
2021/10/31 08:25:41;;;;;;;1999.90;999.90;;;;;;;11.48;100.00;99835.78;5092160;28;20028;-34
2021/10/31 08:28:10;;;;;;;1999.90;999.90;;;;;;;11.36;100.00;99833.22;5091903;28;20479;-34
2021/10/31 08:30:36;;;;;;;1999.90;999.90;;;;;;;11.43;100.00;99832.25;5091701;28;20020;-34
2021/10/31 08:33:17;;;;;;;1999.90;999.90;;;;;;;11.53;100.00;99841.19;5091828;28;20495;-34
2021/10/31 08:35:43;;;;;;;1999.90;999.90;;;;;;;11.33;100.00;99827.56;5092058;28;21186;-34
2021/10/31 08:38:10;;;;;;;1999.90;999.90;;;;;;;11.38;100.00;99833.78;5092141;28;20492;-34
2021/10/31 08:40:37;;;;;;;1999.90;999.90;;;;;;;11.38;100.00;99838.31;5091861;28;20097;-34
2021/10/31 08:43:03;;;;;;;1999.90;999.90;;;;;;;11.42;100.00;99841.28;5092038;28;20032;-34
2021/10/31 08:45:28;;;;;;;1999.90;999.90;;;;;;;11.31;100.00;99835.81;5091726;28;20107;-33
2021/10/31 08:47:54;;;;;;;1999.90;999.90;;;;;;;11.33;100.00;99836.38;5091979;28;20024;-33
2021/10/31 08:50:20;;;;;;;1999.90;999.90;;;;;;;11.28;100.00;99838.97;5091636;28;20031;-34
2021/10/31 08:52:46;;;;;;;1999.90;999.90;;;;;;;11.27;100.00;99829.34;5091928;28;20028;-34
2021/10/31 08:55:12;;;;;;;1999.90;999.90;;;;;;;11.16;100.00;99833.75;5091394;28;20048;-33
2021/10/31 08:57:39;;;;;;;1999.90;999.90;;;;;;;11.18;100.00;99828.94;5091572;28;20119;-34
2021/10/31 09:00:06;;;;;;;1999.90;999.90;;;;;;;11.10;100.00;99824.06;5091735;28;20459;-34
2021/10/31 09:02:32;;;;;;;1999.90;999.90;;;;;;;11.14;100.00;99827.03;5091509;28;20020;-34
2021/10/31 09:04:57;;;;;;;1999.90;999.90;;;;;;;11.10;100.00;99826.72;5091545;28;20561;-33
2021/10/31 09:07:23;;;;;;;1999.90;999.90;;;;;;;11.13;100.00;99823.56;5092313;28;20032;-34
2021/10/31 09:09:49;;;;;;;1999.90;999.90;;;;;;;11.15;100.00;99823.31;5091726;28;20055;-33
2021/10/31 09:12:16;;;;;;;1999.90;999.90;;;;;;;11.14;100.00;99835.03;5091757;28;20468;-33
2021/10/31 09:14:42;;;;;;;1999.90;999.90;;;;;;;11.16;100.00;99827.59;5091411;28;20495;-34
2021/10/31 09:17:09;;;;;;;1999.90;999.90;;;;;;;11.33;100.00;99823.03;5091728;28;20073;-34
2021/10/31 09:19:35;;;;;;;1999.90;999.90;;;;;;;11.23;100.00;99820.22;5091577;28;20119;-33
2021/10/31 09:22:01;;;;;;;;;;;;;;;11.21;100.00;99817.78;5095545;28;20095;-33
2021/10/31 09:24:28;;;;;;;1999.90;999.90;;;;;;;11.18;100.00;99818.28;5095048;28;20026;-34
2021/10/31 09:26:54;;;;;;;1999.90;999.90;;;;;;;11.16;100.00;99816.94;5094828;28;20024;-33
2021/10/31 09:29:20;;;;;;;;;;;;;;;11.14;100.00;99806.50;5095699;28;20020;-34
2021/10/31 09:31:46;;;;;;;1999.90;999.90;;;;;;;11.19;100.00;99808.44;5094736;28;20387;-33
2021/10/31 09:34:12;;;;;;;1999.90;999.90;;;;;;;11.19;100.00;99801.25;5094896;28;20039;-33
2021/10/31 09:36:38;;;;;;;1999.90;999.90;;;;;;;11.34;100.00;99800.63;5094856;28;20028;-33
2021/10/31 09:39:08;;;;;;;1999.90;999.90;;;;;;;11.34;100.00;99794.50;5095081;28;20039;-34
2021/10/31 09:41:35;;;;;;;1999.90;999.90;;;;;;;11.29;100.00;99797.91;5094597;28;20119;-34
2021/10/31 09:44:20;;;;;;;1999.90;999.90;;;;;;;11.43;100.00;99789.56;5094927;28;20467;-34
2021/10/31 09:46:47;;;;;;;1999.90;999.90;;;;;;;11.32;100.00;99792.09;5094642;28;20059;-34
2021/10/31 09:49:14;;;;;;;1999.90;999.90;;;;;;;11.20;100.00;99794.03;5094631;28;20032;-34
2021/10/31 09:51:42;;;;;;;1999.90;999.90;;;;;;;11.28;100.00;99787.50;5094431;28;20144;-34
2021/10/31 09:54:09;;;;;;;1999.90;999.90;;;;;;;11.27;100.00;99791.22;5094542;28;20055;-34
2021/10/31 09:56:37;;;;;;;1999.90;999.90;;;;;;;11.23;100.00;99782.06;5094439;28;20032;-34
2021/10/31 09:59:04;;;;;;;1999.90;999.90;;;;;;;11.36;100.00;99779.03;5094351;28;20035;-34
2021/10/31 10:01:38;;;;;;;1999.90;999.90;;;;;;;11.29;100.00;99786.41;5094164;28;20039;-34
2021/10/31 10:04:05;;;;;;;1999.90;999.90;;;;;;;11.24;100.00;99781.03;5094333;28;20043;-34
2021/10/31 10:06:34;;;;;;;1999.90;999.90;;;;;;;11.28;100.00;99782.94;5093008;28;20050;-33
2021/10/31 10:09:06;;;;;;;1999.90;999.90;;;;;;;11.25;100.00;99782.66;5094212;28;20020;-34
2021/10/31 10:11:35;;;;;;;1999.90;999.90;;;;;;;11.17;100.00;99776.69;5094445;28;20028;-34
2021/10/31 10:14:12;;;;;;;1999.90;999.90;;;;;;;11.19;100.00;99777.22;5094056;28;20023;-33
2021/10/31 10:16:38;;;;;;;;;;;;;;;11.13;100.00;99772.06;5093248;28;20030;-34
2021/10/31 10:19:28;;;;;;;1999.90;999.90;;;;;;;11.20;100.00;99768.19;5093943;28;19919;-34
2021/10/31 10:22:00;;;;;;;1999.90;999.90;;;;;;;11.19;100.00;99765.75;5094124;28;20032;-34
2021/10/31 10:24:27;;;;;;;1999.90;999.90;;;;;;;11.27;100.00;99768.00;5093919;28;20029;-33
2021/10/31 10:27:00;;;;;;;;;;;;;;;11.25;100.00;99761.31;5094228;28;20154;-34
2021/10/31 10:29:35;;;;;;;1999.90;999.90;;;;;;;11.26;100.00;99757.56;5093695;28;19976;-33
2021/10/31 10:32:11;;;;;;;1999.90;999.90;;;;;;;11.24;100.00;99757.81;5093211;28;20041;-34
2021/10/31 10:34:51;;;;;;;1999.90;999.90;;;;;;;11.27;100.00;99753.84;5093719;28;20115;-33
2021/10/31 10:37:27;;;;;;;1999.90;999.90;;;;;;;11.25;100.00;99755.97;5093590;28;20024;-33
2021/10/31 10:39:59;;;;;;;1999.90;999.90;;;;;;;11.33;100.00;99764.34;5093501;28;20460;-33
2021/10/31 10:42:33;;;;;;;1999.90;999.90;;;;;;;11.29;100.00;99749.91;5093451;28;20036;-33
2021/10/31 10:45:05;;;;;;;1999.90;999.90;;;;;;;11.37;100.00;99751.31;5093847;28;20101;-33
2021/10/31 10:47:40;;;;;;;1999.90;999.90;;;;;;;11.37;100.00;99751.31;5093738;28;20076;-34
2021/10/31 10:50:13;;;;;;;1999.90;999.90;;;;;;;11.25;100.00;99739.97;5093372;28;20034;-33
2021/10/31 10:52:42;;;;;;;1999.90;999.90;;;;;;;11.30;100.00;99748.03;5093202;28;20058;-33
2021/10/31 10:55:19;;;;;;;1999.90;999.90;;;;;;;11.34;100.00;99744.63;5093030;28;20044;-34
2021/10/31 10:58:09;;;;;;;1999.90;999.90;;;;;;;11.36;100.00;99741.69;5093143;28;20085;-33
2021/10/31 11:00:43;;;;;;;1999.90;999.90;;;;;;;11.20;100.00;99741.50;5092417;28;20117;-33